Amity, Oregon
Current Conditions -  °F | °C
As of 5:53 PM on Sunday 23 Nov 2014 (Local Time) from KMMV Reporting Station
Few Clouds Few Clouds  
Wind Chill: 46°   Ceiling: Unl
Heat Index: 49°   Visibility: 10mi
Dew Point: 46°   Wind: 7mph
Humidity: 90%   Direction: 210°SSW
Pressure: 30.31"   Gusts: NA
Location:  45.12°N, 123.21°W
Report Text: KMMV 240153Z AUTO 21006KT 10SM FEW070 09/08 A3031 RMK AO2 SLP263 T00940078 $
Loading
Personal Weather Stations






























Interactive Weather Map New forecast layout! Learn more

10-Day Weather Forecast

Advertisements
Track Severe Weather on mobile